sensor_id;sensor_type;location;lat;lon;timestamp;temperature;humidity
74368;DHT22;64991;41.090;-8.118;2023-02-26T00:03:01;17.50;76.00
74368;DHT22;64991;41.090;-8.118;2023-02-26T00:08:05;17.50;75.90
74368;DHT22;64991;41.090;-8.118;2023-02-26T00:13:10;17.60;76.10
74368;DHT22;64991;41.090;-8.118;2023-02-26T00:18:14;17.60;75.90
74368;DHT22;64991;41.090;-8.118;2023-02-26T00:23:18;17.70;75.90
74368;DHT22;64991;41.090;-8.118;2023-02-26T00:28:24;17.80;75.90
74368;DHT22;64991;41.090;-8.118;2023-02-26T00:33:28;17.70;75.80
74368;DHT22;64991;41.090;-8.118;2023-02-26T00:38:32;17.70;75.70
74368;DHT22;64991;41.090;-8.118;2023-02-26T00:43:38;17.70;75.40
74368;DHT22;64991;41.090;-8.118;2023-02-26T00:48:44;17.70;75.50
74368;DHT22;64991;41.090;-8.118;2023-02-26T00:53:53;17.70;75.40
74368;DHT22;64991;41.090;-8.118;2023-02-26T00:59:03;17.70;75.40
74368;DHT22;64991;41.090;-8.118;2023-02-26T01:04:06;17.80;75.40
74368;DHT22;64991;41.090;-8.118;2023-02-26T01:09:13;17.80;75.30
74368;DHT22;64991;41.090;-8.118;2023-02-26T01:14:21;17.80;75.00
74368;DHT22;64991;41.090;-8.118;2023-02-26T01:19:27;17.80;74.90
74368;DHT22;64991;41.090;-8.118;2023-02-26T01:24:33;17.70;75.20
74368;DHT22;64991;41.090;-8.118;2023-02-26T01:29:39;17.80;74.70
74368;DHT22;64991;41.090;-8.118;2023-02-26T01:34:44;17.80;74.80
74368;DHT22;64991;41.090;-8.118;2023-02-26T01:39:53;17.70;74.70
74368;DHT22;64991;41.090;-8.118;2023-02-26T01:45:11;17.90;74.90
74368;DHT22;64991;41.090;-8.118;2023-02-26T01:50:18;17.80;74.70
74368;DHT22;64991;41.090;-8.118;2023-02-26T01:55:23;17.80;74.60
74368;DHT22;64991;41.090;-8.118;2023-02-26T02:00:29;17.80;74.60
74368;DHT22;64991;41.090;-8.118;2023-02-26T02:05:34;17.80;74.50
74368;DHT22;64991;41.090;-8.118;2023-02-26T02:10:42;17.90;74.50
74368;DHT22;64991;41.090;-8.118;2023-02-26T02:15:49;17.90;74.50
74368;DHT22;64991;41.090;-8.118;2023-02-26T02:26:55;18.00;74.00
74368;DHT22;64991;41.090;-8.118;2023-02-26T02:32:03;18.00;74.30
74368;DHT22;64991;41.090;-8.118;2023-02-26T02:37:10;17.90;74.30
74368;DHT22;64991;41.090;-8.118;2023-02-26T02:42:21;18.00;74.40
74368;DHT22;64991;41.090;-8.118;2023-02-26T02:47:29;18.10;74.40
74368;DHT22;64991;41.090;-8.118;2023-02-26T02:52:35;18.00;74.40
74368;DHT22;64991;41.090;-8.118;2023-02-26T02:57:44;18.00;74.20
74368;DHT22;64991;41.090;-8.118;2023-02-26T03:02:54;18.10;74.30
74368;DHT22;64991;41.090;-8.118;2023-02-26T03:08:02;18.00;74.00
74368;DHT22;64991;41.090;-8.118;2023-02-26T03:13:13;18.10;74.00
74368;DHT22;64991;41.090;-8.118;2023-02-26T03:18:20;18.10;74.00
74368;DHT22;64991;41.090;-8.118;2023-02-26T03:23:28;18.10;74.00
74368;DHT22;64991;41.090;-8.118;2023-02-26T03:28:35;18.10;73.80
74368;DHT22;64991;41.090;-8.118;2023-02-26T03:33:44;18.20;73.20
74368;DHT22;64991;41.090;-8.118;2023-02-26T03:38:52;18.10;73.70
74368;DHT22;64991;41.090;-8.118;2023-02-26T03:43:58;18.10;73.60
74368;DHT22;64991;41.090;-8.118;2023-02-26T03:49:06;18.00;73.80
74368;DHT22;64991;41.090;-8.118;2023-02-26T03:54:14;18.10;73.90
74368;DHT22;64991;41.090;-8.118;2023-02-26T03:59:21;18.10;73.80
74368;DHT22;64991;41.090;-8.118;2023-02-26T04:04:27;18.10;73.60
74368;DHT22;64991;41.090;-8.118;2023-02-26T04:09:33;18.20;73.00
74368;DHT22;64991;41.090;-8.118;2023-02-26T04:14:37;18.20;72.80
74368;DHT22;64991;41.090;-8.118;2023-02-26T04:19:42;18.20;73.00
74368;DHT22;64991;41.090;-8.118;2023-02-26T04:24:45;18.20;72.90
74368;DHT22;64991;41.090;-8.118;2023-02-26T04:29:49;18.30;72.60
74368;DHT22;64991;41.090;-8.118;2023-02-26T04:34:53;18.30;72.60
74368;DHT22;64991;41.090;-8.118;2023-02-26T04:39:57;18.20;72.70
74368;DHT22;64991;41.090;-8.118;2023-02-26T04:45:00;18.20;72.60
74368;DHT22;64991;41.090;-8.118;2023-02-26T04:50:06;18.40;72.50
74368;DHT22;64991;41.090;-8.118;2023-02-26T04:55:11;18.30;72.50
74368;DHT22;64991;41.090;-8.118;2023-02-26T05:00:15;18.40;72.70
74368;DHT22;64991;41.090;-8.118;2023-02-26T05:05:22;18.40;72.50
74368;DHT22;64991;41.090;-8.118;2023-02-26T05:10:25;18.40;72.60
74368;DHT22;64991;41.090;-8.118;2023-02-26T05:15:29;18.40;72.70
74368;DHT22;64991;41.090;-8.118;2023-02-26T05:20:34;18.50;72.40
74368;DHT22;64991;41.090;-8.118;2023-02-26T05:25:37;18.40;72.30
74368;DHT22;64991;41.090;-8.118;2023-02-26T05:30:41;18.40;72.10
74368;DHT22;64991;41.090;-8.118;2023-02-26T05:35:46;18.50;72.30
74368;DHT22;64991;41.090;-8.118;2023-02-26T05:40:50;18.40;72.70
74368;DHT22;64991;41.090;-8.118;2023-02-26T05:45:53;18.50;72.30
74368;DHT22;64991;41.090;-8.118;2023-02-26T05:50:58;18.60;71.80
74368;DHT22;64991;41.090;-8.118;2023-02-26T05:56:02;18.50;72.10
74368;DHT22;64991;41.090;-8.118;2023-02-26T06:01:06;18.50;72.40
74368;DHT22;64991;41.090;-8.118;2023-02-26T06:06:11;18.50;72.40
74368;DHT22;64991;41.090;-8.118;2023-02-26T06:11:17;18.60;72.10
74368;DHT22;64991;41.090;-8.118;2023-02-26T06:16:20;18.60;72.10
74368;DHT22;64991;41.090;-8.118;2023-02-26T06:21:26;18.60;72.00
74368;DHT22;64991;41.090;-8.118;2023-02-26T06:26:30;18.50;72.20
74368;DHT22;64991;41.090;-8.118;2023-02-26T06:31:33;18.60;72.10
74368;DHT22;64991;41.090;-8.118;2023-02-26T06:36:38;18.50;72.00
74368;DHT22;64991;41.090;-8.118;2023-02-26T06:41:41;18.70;72.10
74368;DHT22;64991;41.090;-8.118;2023-02-26T06:46:45;18.60;71.70
74368;DHT22;64991;41.090;-8.118;2023-02-26T06:51:50;18.60;71.70
74368;DHT22;64991;41.090;-8.118;2023-02-26T06:56:53;18.60;71.70
74368;DHT22;64991;41.090;-8.118;2023-02-26T07:01:58;18.70;71.70
74368;DHT22;64991;41.090;-8.118;2023-02-26T07:07:03;18.60;72.10
74368;DHT22;64991;41.090;-8.118;2023-02-26T07:12:06;18.50;72.10
74368;DHT22;64991;41.090;-8.118;2023-02-26T07:17:10;18.60;71.90
74368;DHT22;64991;41.090;-8.118;2023-02-26T07:22:22;18.60;72.10
74368;DHT22;64991;41.090;-8.118;2023-02-26T07:27:26;18.70;72.10
74368;DHT22;64991;41.090;-8.118;2023-02-26T07:32:30;18.60;72.00
74368;DHT22;64991;41.090;-8.118;2023-02-26T07:37:36;18.60;72.20
74368;DHT22;64991;41.090;-8.118;2023-02-26T07:42:39;18.50;72.40
74368;DHT22;64991;41.090;-8.118;2023-02-26T07:47:43;18.40;72.60
74368;DHT22;64991;41.090;-8.118;2023-02-26T07:52:47;18.60;72.40
74368;DHT22;64991;41.090;-8.118;2023-02-26T07:57:51;18.50;72.40
74368;DHT22;64991;41.090;-8.118;2023-02-26T08:02:54;18.50;72.40
74368;DHT22;64991;41.090;-8.118;2023-02-26T08:08:00;18.70;72.50
74368;DHT22;64991;41.090;-8.118;2023-02-26T08:13:04;18.70;72.40
74368;DHT22;64991;41.090;-8.118;2023-02-26T08:18:07;18.70;72.30
74368;DHT22;64991;41.090;-8.118;2023-02-26T08:23:12;18.70;71.80
74368;DHT22;64991;41.090;-8.118;2023-02-26T08:28:16;18.70;72.10
74368;DHT22;64991;41.090;-8.118;2023-02-26T08:33:19;18.70;68.80
74368;DHT22;64991;41.090;-8.118;2023-02-26T08:38:27;17.60;73.00
74368;DHT22;64991;41.090;-8.118;2023-02-26T08:43:31;18.50;72.30
74368;DHT22;64991;41.090;-8.118;2023-02-26T08:48:35;18.80;72.20
74368;DHT22;64991;41.090;-8.118;2023-02-26T08:53:39;18.80;72.40
74368;DHT22;64991;41.090;-8.118;2023-02-26T08:58:46;18.90;72.70
74368;DHT22;64991;41.090;-8.118;2023-02-26T09:03:49;19.00;72.70
74368;DHT22;64991;41.090;-8.118;2023-02-26T09:08:54;17.80;72.20
74368;DHT22;64991;41.090;-8.118;2023-02-26T09:13:58;18.80;72.50
74368;DHT22;64991;41.090;-8.118;2023-02-26T09:19:03;19.10;72.10
74368;DHT22;64991;41.090;-8.118;2023-02-26T09:24:08;18.90;71.50
74368;DHT22;64991;41.090;-8.118;2023-02-26T09:29:12;18.90;71.70
74368;DHT22;64991;41.090;-8.118;2023-02-26T09:34:15;19.10;71.90
74368;DHT22;64991;41.090;-8.118;2023-02-26T09:39:20;19.10;71.50
74368;DHT22;64991;41.090;-8.118;2023-02-26T09:44:26;19.30;71.90
74368;DHT22;64991;41.090;-8.118;2023-02-26T09:49:33;19.20;71.70
74368;DHT22;64991;41.090;-8.118;2023-02-26T09:54:48;19.20;72.20
74368;DHT22;64991;41.090;-8.118;2023-02-26T09:59:55;19.30;72.30
74368;DHT22;64991;41.090;-8.118;2023-02-26T10:05:03;19.30;72.70
74368;DHT22;64991;41.090;-8.118;2023-02-26T10:10:16;19.20;72.70
74368;DHT22;64991;41.090;-8.118;2023-02-26T10:15:25;19.30;72.70
74368;DHT22;64991;41.090;-8.118;2023-02-26T10:20:32;19.30;72.90
74368;DHT22;64991;41.090;-8.118;2023-02-26T10:25:43;19.20;72.30
74368;DHT22;64991;41.090;-8.118;2023-02-26T10:30:51;19.20;72.80
74368;DHT22;64991;41.090;-8.118;2023-02-26T10:36:07;19.30;73.00
74368;DHT22;64991;41.090;-8.118;2023-02-26T10:41:19;19.30;72.00
74368;DHT22;64991;41.090;-8.118;2023-02-26T10:46:28;19.10;72.60
74368;DHT22;64991;41.090;-8.118;2023-02-26T10:51:37;19.10;72.40
74368;DHT22;64991;41.090;-8.118;2023-02-26T10:56:42;19.20;72.50
74368;DHT22;64991;41.090;-8.118;2023-02-26T11:01:46;19.20;72.60
74368;DHT22;64991;41.090;-8.118;2023-02-26T11:06:50;19.20;72.20
74368;DHT22;64991;41.090;-8.118;2023-02-26T11:12:00;19.30;72.20
74368;DHT22;64991;41.090;-8.118;2023-02-26T11:17:09;19.20;72.80
74368;DHT22;64991;41.090;-8.118;2023-02-26T11:22:14;19.20;72.30
74368;DHT22;64991;41.090;-8.118;2023-02-26T11:27:20;19.30;72.50
74368;DHT22;64991;41.090;-8.118;2023-02-26T11:32:28;19.30;72.30
74368;DHT22;64991;41.090;-8.118;2023-02-26T11:37:33;19.30;72.30
74368;DHT22;64991;41.090;-8.118;2023-02-26T11:42:40;19.30;72.40
74368;DHT22;64991;41.090;-8.118;2023-02-26T11:47:46;19.30;72.20
74368;DHT22;64991;41.090;-8.118;2023-02-26T11:52:53;19.30;72.20
74368;DHT22;64991;41.090;-8.118;2023-02-26T11:58:00;19.20;70.60
74368;DHT22;64991;41.090;-8.118;2023-02-26T12:03:04;19.20;70.30
74368;DHT22;64991;41.090;-8.118;2023-02-26T12:08:15;19.20;70.80
74368;DHT22;64991;41.090;-8.118;2023-02-26T12:13:23;19.20;71.20
74368;DHT22;64991;41.090;-8.118;2023-02-26T12:18:32;19.30;69.50
74368;DHT22;64991;41.090;-8.118;2023-02-26T12:29:28;19.30;70.00
74368;DHT22;64991;41.090;-8.118;2023-02-26T12:34:44;19.40;69.80
74368;DHT22;64991;41.090;-8.118;2023-02-26T12:40:05;19.40;69.20
74368;DHT22;64991;41.090;-8.118;2023-02-26T12:45:23;19.50;69.00
74368;DHT22;64991;41.090;-8.118;2023-02-26T12:50:40;19.60;68.90
74368;DHT22;64991;41.090;-8.118;2023-02-26T12:55:56;19.60;69.60
74368;DHT22;64991;41.090;-8.118;2023-02-26T13:01:09;19.60;70.00
74368;DHT22;64991;41.090;-8.118;2023-02-26T13:12:16;19.50;72.40
74368;DHT22;64991;41.090;-8.118;2023-02-26T13:17:30;19.50;73.20
74368;DHT22;64991;41.090;-8.118;2023-02-26T13:22:38;19.50;73.80
74368;DHT22;64991;41.090;-8.118;2023-02-26T13:27:45;19.40;73.60
74368;DHT22;64991;41.090;-8.118;2023-02-26T13:32:52;19.60;74.20
74368;DHT22;64991;41.090;-8.118;2023-02-26T13:37:57;19.70;73.60
74368;DHT22;64991;41.090;-8.118;2023-02-26T13:43:04;19.60;73.20
74368;DHT22;64991;41.090;-8.118;2023-02-26T13:48:15;19.70;73.20
74368;DHT22;64991;41.090;-8.118;2023-02-26T13:53:45;19.60;72.80
74368;DHT22;64991;41.090;-8.118;2023-02-26T13:58:52;19.60;72.20
74368;DHT22;64991;41.090;-8.118;2023-02-26T14:04:07;19.60;72.30
74368;DHT22;64991;41.090;-8.118;2023-02-26T14:09:29;19.50;72.40
74368;DHT22;64991;41.090;-8.118;2023-02-26T15:05:17;19.20;72.70
74368;DHT22;64991;41.090;-8.118;2023-02-26T15:10:34;19.20;72.60
74368;DHT22;64991;41.090;-8.118;2023-02-26T15:15:46;19.30;72.70
74368;DHT22;64991;41.090;-8.118;2023-02-26T15:20:59;19.20;72.90
74368;DHT22;64991;41.090;-8.118;2023-02-26T15:26:14;19.30;73.20
74368;DHT22;64991;41.090;-8.118;2023-02-26T15:31:27;19.30;73.20
74368;DHT22;64991;41.090;-8.118;2023-02-26T15:36:33;19.40;73.50
74368;DHT22;64991;41.090;-8.118;2023-02-26T15:41:37;19.50;70.70
74368;DHT22;64991;41.090;-8.118;2023-02-26T15:46:43;19.40;72.20
74368;DHT22;64991;41.090;-8.118;2023-02-26T15:51:48;19.50;72.00
74368;DHT22;64991;41.090;-8.118;2023-02-26T15:56:53;19.30;71.60
74368;DHT22;64991;41.090;-8.118;2023-02-26T16:02:00;19.30;71.70
74368;DHT22;64991;41.090;-8.118;2023-02-26T16:07:03;19.20;71.10
74368;DHT22;64991;41.090;-8.118;2023-02-26T16:12:08;19.20;70.60
74368;DHT22;64991;41.090;-8.118;2023-02-26T16:17:15;19.20;70.50
74368;DHT22;64991;41.090;-8.118;2023-02-26T16:22:24;19.20;70.50
74368;DHT22;64991;41.090;-8.118;2023-02-26T16:27:31;19.30;69.20
74368;DHT22;64991;41.090;-8.118;2023-02-26T16:32:36;19.50;68.30
74368;DHT22;64991;41.090;-8.118;2023-02-26T16:37:42;19.50;67.70
74368;DHT22;64991;41.090;-8.118;2023-02-26T16:42:51;19.50;67.10
74368;DHT22;64991;41.090;-8.118;2023-02-26T16:47:57;19.50;66.70
74368;DHT22;64991;41.090;-8.118;2023-02-26T16:53:10;19.60;66.50
74368;DHT22;64991;41.090;-8.118;2023-02-26T16:58:16;19.50;66.80
74368;DHT22;64991;41.090;-8.118;2023-02-26T17:03:22;19.50;66.60
74368;DHT22;64991;41.090;-8.118;2023-02-26T17:08:27;19.50;66.60
74368;DHT22;64991;41.090;-8.118;2023-02-26T17:13:35;19.50;66.90
74368;DHT22;64991;41.090;-8.118;2023-02-26T17:18:40;19.40;67.20
74368;DHT22;64991;41.090;-8.118;2023-02-26T17:23:43;19.40;67.20
74368;DHT22;64991;41.090;-8.118;2023-02-26T17:28:47;19.40;67.30
74368;DHT22;64991;41.090;-8.118;2023-02-26T17:33:52;19.40;67.70
74368;DHT22;64991;41.090;-8.118;2023-02-26T17:38:56;19.30;67.70
74368;DHT22;64991;41.090;-8.118;2023-02-26T17:43:59;19.40;67.80
74368;DHT22;64991;41.090;-8.118;2023-02-26T17:49:04;19.20;68.00
74368;DHT22;64991;41.090;-8.118;2023-02-26T17:54:08;19.40;68.10
74368;DHT22;64991;41.090;-8.118;2023-02-26T17:59:11;19.30;68.10
74368;DHT22;64991;41.090;-8.118;2023-02-26T18:04:16;19.30;68.10
74368;DHT22;64991;41.090;-8.118;2023-02-26T18:09:20;19.20;68.30
74368;DHT22;64991;41.090;-8.118;2023-02-26T18:14:23;19.20;68.60
74368;DHT22;64991;41.090;-8.118;2023-02-26T18:19:28;19.20;68.50
74368;DHT22;64991;41.090;-8.118;2023-02-26T18:24:32;19.30;68.40
74368;DHT22;64991;41.090;-8.118;2023-02-26T18:29:35;19.20;68.40
74368;DHT22;64991;41.090;-8.118;2023-02-26T18:34:40;19.30;68.40
74368;DHT22;64991;41.090;-8.118;2023-02-26T18:39:44;19.30;68.70
74368;DHT22;64991;41.090;-8.118;2023-02-26T18:44:48;19.20;68.90
74368;DHT22;64991;41.090;-8.118;2023-02-26T18:49:53;19.20;68.90
74368;DHT22;64991;41.090;-8.118;2023-02-26T18:54:57;19.20;68.90
74368;DHT22;64991;41.090;-8.118;2023-02-26T19:00:04;19.10;68.90
74368;DHT22;64991;41.090;-8.118;2023-02-26T19:05:11;19.20;68.80
74368;DHT22;64991;41.090;-8.118;2023-02-26T19:15:19;19.20;69.10
74368;DHT22;64991;41.090;-8.118;2023-02-26T19:20:24;19.10;69.20
74368;DHT22;64991;41.090;-8.118;2023-02-26T19:25:27;19.00;69.50
74368;DHT22;64991;41.090;-8.118;2023-02-26T19:30:31;19.00;69.40
74368;DHT22;64991;41.090;-8.118;2023-02-26T19:35:38;19.00;69.70
74368;DHT22;64991;41.090;-8.118;2023-02-26T19:40:42;19.00;69.90
74368;DHT22;64991;41.090;-8.118;2023-02-26T19:45:46;19.00;69.70
74368;DHT22;64991;41.090;-8.118;2023-02-26T19:50:53;19.00;69.80
74368;DHT22;64991;41.090;-8.118;2023-02-26T19:55:57;19.00;69.90
74368;DHT22;64991;41.090;-8.118;2023-02-26T20:01:01;19.00;70.00
74368;DHT22;64991;41.090;-8.118;2023-02-26T20:06:07;19.00;69.90
74368;DHT22;64991;41.090;-8.118;2023-02-26T20:11:11;18.90;70.00
74368;DHT22;64991;41.090;-8.118;2023-02-26T20:16:15;18.90;70.10
74368;DHT22;64991;41.090;-8.118;2023-02-26T20:21:19;18.90;70.00
74368;DHT22;64991;41.090;-8.118;2023-02-26T20:26:24;18.90;70.00
74368;DHT22;64991;41.090;-8.118;2023-02-26T20:31:27;18.90;69.80
74368;DHT22;64991;41.090;-8.118;2023-02-26T20:36:33;18.80;69.80
74368;DHT22;64991;41.090;-8.118;2023-02-26T20:41:37;19.00;70.10
74368;DHT22;64991;41.090;-8.118;2023-02-26T20:46:40;18.80;69.90
74368;DHT22;64991;41.090;-8.118;2023-02-26T20:51:45;18.90;69.80
74368;DHT22;64991;41.090;-8.118;2023-02-26T20:56:51;18.90;70.00
74368;DHT22;64991;41.090;-8.118;2023-02-26T21:01:54;18.90;69.90
74368;DHT22;64991;41.090;-8.118;2023-02-26T21:07:00;18.90;70.20
74368;DHT22;64991;41.090;-8.118;2023-02-26T21:12:22;18.80;69.70
74368;DHT22;64991;41.090;-8.118;2023-02-26T21:17:26;18.80;69.90
74368;DHT22;64991;41.090;-8.118;2023-02-26T21:22:32;18.90;69.90
74368;DHT22;64991;41.090;-8.118;2023-02-26T21:27:37;18.80;70.10
74368;DHT22;64991;41.090;-8.118;2023-02-26T21:32:40;18.70;69.80
74368;DHT22;64991;41.090;-8.118;2023-02-26T21:37:45;18.70;70.10
74368;DHT22;64991;41.090;-8.118;2023-02-26T21:42:49;18.70;69.80
74368;DHT22;64991;41.090;-8.118;2023-02-26T21:47:53;18.80;69.90
74368;DHT22;64991;41.090;-8.118;2023-02-26T21:52:57;18.70;70.10
74368;DHT22;64991;41.090;-8.118;2023-02-26T21:58:01;18.70;69.90
74368;DHT22;64991;41.090;-8.118;2023-02-26T22:03:05;18.80;69.90
74368;DHT22;64991;41.090;-8.118;2023-02-26T22:08:10;18.70;69.80
74368;DHT22;64991;41.090;-8.118;2023-02-26T22:13:13;18.70;69.80
74368;DHT22;64991;41.090;-8.118;2023-02-26T22:18:17;18.60;69.70
74368;DHT22;64991;41.090;-8.118;2023-02-26T22:23:22;18.70;70.00
74368;DHT22;64991;41.090;-8.118;2023-02-26T22:28:26;18.60;70.20
74368;DHT22;64991;41.090;-8.118;2023-02-26T22:33:29;18.60;69.90
74368;DHT22;64991;41.090;-8.118;2023-02-26T22:38:34;18.70;69.70
74368;DHT22;64991;41.090;-8.118;2023-02-26T22:43:37;18.70;70.00
74368;DHT22;64991;41.090;-8.118;2023-02-26T22:48:41;18.60;69.90
74368;DHT22;64991;41.090;-8.118;2023-02-26T22:53:46;18.50;69.70
74368;DHT22;64991;41.090;-8.118;2023-02-26T22:58:49;18.50;69.50
74368;DHT22;64991;41.090;-8.118;2023-02-26T23:03:53;18.60;69.60
74368;DHT22;64991;41.090;-8.118;2023-02-26T23:08:58;18.50;69.80
74368;DHT22;64991;41.090;-8.118;2023-02-26T23:14:01;18.60;69.50
74368;DHT22;64991;41.090;-8.118;2023-02-26T23:19:05;18.50;69.90
74368;DHT22;64991;41.090;-8.118;2023-02-26T23:24:10;18.60;69.80
74368;DHT22;64991;41.090;-8.118;2023-02-26T23:29:13;18.50;69.80
74368;DHT22;64991;41.090;-8.118;2023-02-26T23:34:17;18.50;69.60
74368;DHT22;64991;41.090;-8.118;2023-02-26T23:39:22;18.40;69.70
74368;DHT22;64991;41.090;-8.118;2023-02-26T23:44:29;18.50;69.40
74368;DHT22;64991;41.090;-8.118;2023-02-26T23:49:32;18.40;69.30
74368;DHT22;64991;41.090;-8.118;2023-02-26T23:54:37;18.40;69.50
74368;DHT22;64991;41.090;-8.118;2023-02-26T23:59:41;18.40;69.60
